sensor_id;sensor_type;location;lat;lon;timestamp;pressure;altitude;pressure_sealevel;temperature;humidity
23679;BME280;12016;51.668;6.874;2023-02-12T00:01:09;103583.59;;;9.50;75.79
23679;BME280;12016;51.668;6.874;2023-02-12T00:07:12;103565.72;;;9.44;75.57
23679;BME280;12016;51.668;6.874;2023-02-12T00:13:13;103524.22;;;9.17;75.76
23679;BME280;12016;51.668;6.874;2023-02-12T00:19:15;103574.69;;;9.50;75.71
23679;BME280;12016;51.668;6.874;2023-02-12T00:25:17;103566.06;;;9.24;76.25
23679;BME280;12016;51.668;6.874;2023-02-12T00:31:24;103568.16;;;9.11;76.49
23679;BME280;12016;51.668;6.874;2023-02-12T00:37:29;103340.75;;;7.51;76.53
23679;BME280;12016;51.668;6.874;2023-02-12T00:43:32;103310.31;;;7.58;76.46
23679;BME280;12016;51.668;6.874;2023-02-12T00:49:34;103568.88;;;9.29;76.28
23679;BME280;12016;51.668;6.874;2023-02-12T00:55:36;103150.84;;;6.65;75.71
23679;BME280;12016;51.668;6.874;2023-02-12T01:01:38;103388.97;;;8.11;75.73
23679;BME280;12016;51.668;6.874;2023-02-12T01:07:40;103568.63;;;9.43;75.63
23679;BME280;12016;51.668;6.874;2023-02-12T01:13:43;103369.81;;;7.66;75.84
23679;BME280;12016;51.668;6.874;2023-02-12T01:19:45;103450.91;;;8.40;76.05
23679;BME280;12016;51.668;6.874;2023-02-12T01:25:47;103366.19;;;7.91;76.55
23679;BME280;12016;51.668;6.874;2023-02-12T01:31:48;103557.63;;;9.09;77.00
23679;BME280;12016;51.668;6.874;2023-02-12T01:37:51;103131.22;;;6.53;75.62
23679;BME280;12016;51.668;6.874;2023-02-12T01:50:16;103542.09;;;9.23;76.11
23679;BME280;12016;51.668;6.874;2023-02-12T01:56:20;103547.47;;;9.23;76.49
23679;BME280;12016;51.668;6.874;2023-02-12T02:02:25;103476.31;;;8.90;75.77
23679;BME280;12016;51.668;6.874;2023-02-12T02:08:27;103546.19;;;9.14;76.03
23679;BME280;12016;51.668;6.874;2023-02-12T02:14:29;103473.38;;;8.80;76.06
23679;BME280;12016;51.668;6.874;2023-02-12T02:33:13;103541.63;;;9.14;76.02
23679;BME280;12016;51.668;6.874;2023-02-12T02:39:27;103507.63;;;9.08;75.79
23679;BME280;12016;51.668;6.874;2023-02-12T02:45:35;103107.66;;;6.62;75.41
23679;BME280;12016;51.668;6.874;2023-02-12T02:51:42;103536.16;;;9.21;75.57
23679;BME280;12016;51.668;6.874;2023-02-12T02:57:56;103531.31;;;9.23;75.92
23679;BME280;12016;51.668;6.874;2023-02-12T03:04:28;103527.50;;;9.19;75.67
23679;BME280;12016;51.668;6.874;2023-02-12T03:10:42;103503.41;;;9.01;75.64
23679;BME280;12016;51.668;6.874;2023-02-12T03:16:57;103284.34;;;7.70;75.34
23679;BME280;12016;51.668;6.874;2023-02-12T03:23:06;103477.06;;;8.44;75.47
23679;BME280;12016;51.668;6.874;2023-02-12T03:29:10;103525.25;;;9.16;75.52
23679;BME280;12016;51.668;6.874;2023-02-12T03:35:20;103533.47;;;9.21;75.62
23679;BME280;12016;51.668;6.874;2023-02-12T03:41:32;103522.34;;;9.17;75.55
23679;BME280;12016;51.668;6.874;2023-02-12T03:47:45;103382.91;;;8.28;75.70
23679;BME280;12016;51.668;6.874;2023-02-12T03:53:49;103400.94;;;8.39;75.10
23679;BME280;12016;51.668;6.874;2023-02-12T03:59:51;103015.59;;;5.85;74.98
23679;BME280;12016;51.668;6.874;2023-02-12T04:05:53;103552.03;;;9.11;75.72
23679;BME280;12016;51.668;6.874;2023-02-12T04:18:28;103509.00;;;8.87;75.34
23679;BME280;12016;51.668;6.874;2023-02-12T04:30:44;103553.66;;;9.12;75.82
23679;BME280;12016;51.668;6.874;2023-02-12T04:36:54;103297.25;;;7.49;75.11
23679;BME280;12016;51.668;6.874;2023-02-12T04:42:57;103463.63;;;8.44;74.78
23679;BME280;12016;51.668;6.874;2023-02-12T04:48:59;103549.00;;;8.95;75.08
23679;BME280;12016;51.668;6.874;2023-02-12T04:55:01;103578.91;;;9.11;75.11
23679;BME280;12016;51.668;6.874;2023-02-12T05:01:03;103571.91;;;9.10;75.33
23679;BME280;12016;51.668;6.874;2023-02-12T05:07:05;103291.03;;;7.37;74.97
23679;BME280;12016;51.668;6.874;2023-02-12T05:13:09;103461.66;;;8.40;75.36
23679;BME280;12016;51.668;6.874;2023-02-12T05:19:11;103577.00;;;8.76;75.11
23679;BME280;12016;51.668;6.874;2023-02-12T05:25:13;103590.63;;;9.05;75.53
23679;BME280;12016;51.668;6.874;2023-02-12T05:31:20;103369.81;;;7.66;74.94
23679;BME280;12016;51.668;6.874;2023-02-12T05:37:22;103581.38;;;9.01;75.16
23679;BME280;12016;51.668;6.874;2023-02-12T05:43:24;103502.59;;;8.05;75.92
23679;BME280;12016;51.668;6.874;2023-02-12T05:49:26;103393.03;;;7.61;76.05
23679;BME280;12016;51.668;6.874;2023-02-12T05:55:27;103599.81;;;8.97;75.86
23679;BME280;12016;51.668;6.874;2023-02-12T06:01:35;103543.28;;;8.20;74.93
23679;BME280;12016;51.668;6.874;2023-02-12T06:07:36;103612.78;;;8.88;76.00
23679;BME280;12016;51.668;6.874;2023-02-12T06:13:38;103473.34;;;8.04;75.91
23679;BME280;12016;51.668;6.874;2023-02-12T06:19:40;103596.13;;;8.56;75.81
23679;BME280;12016;51.668;6.874;2023-02-12T06:25:42;103610.63;;;8.67;75.88
23679;BME280;12016;51.668;6.874;2023-02-12T06:31:44;103616.53;;;8.57;76.68
23679;BME280;12016;51.668;6.874;2023-02-12T06:37:46;103615.59;;;8.52;76.40
23679;BME280;12016;51.668;6.874;2023-02-12T06:43:48;103630.31;;;8.49;77.06
23679;BME280;12016;51.668;6.874;2023-02-12T06:49:50;103450.66;;;7.40;76.55
23679;BME280;12016;51.668;6.874;2023-02-12T06:55:52;103242.34;;;6.44;76.12
23679;BME280;12016;51.668;6.874;2023-02-12T07:01:54;103629.72;;;8.89;75.97
23679;BME280;12016;51.668;6.874;2023-02-12T07:07:56;103453.16;;;7.83;75.23
23679;BME280;12016;51.668;6.874;2023-02-12T07:13:58;103626.81;;;8.90;75.46
23679;BME280;12016;51.668;6.874;2023-02-12T07:19:59;103546.56;;;8.41;75.63
23679;BME280;12016;51.668;6.874;2023-02-12T07:26:04;103640.19;;;9.09;75.43
23679;BME280;12016;51.668;6.874;2023-02-12T07:32:06;103510.66;;;8.05;75.03
23679;BME280;12016;51.668;6.874;2023-02-12T07:38:08;103286.88;;;6.93;74.80
23679;BME280;12016;51.668;6.874;2023-02-12T07:44:11;103484.09;;;7.85;74.67
23679;BME280;12016;51.668;6.874;2023-02-12T07:50:13;103523.53;;;8.45;74.51
23679;BME280;12016;51.668;6.874;2023-02-12T07:56:25;103659.88;;;9.32;74.63
23679;BME280;12016;51.668;6.874;2023-02-12T08:02:32;103659.16;;;9.37;74.75
23679;BME280;12016;51.668;6.874;2023-02-12T08:08:34;103177.50;;;6.24;74.07
23679;BME280;12016;51.668;6.874;2023-02-12T08:14:36;103259.16;;;6.51;75.10
23679;BME280;12016;51.668;6.874;2023-02-12T08:20:38;103414.47;;;7.61;75.21
23679;BME280;12016;51.668;6.874;2023-02-12T08:26:40;103682.91;;;9.40;75.02
23679;BME280;12016;51.668;6.874;2023-02-12T08:32:42;103105.66;;;5.48;74.44
23679;BME280;12016;51.668;6.874;2023-02-12T08:38:45;103693.81;;;9.57;74.22
23679;BME280;12016;51.668;6.874;2023-02-12T08:44:47;103369.22;;;7.52;73.61
23679;BME280;12016;51.668;6.874;2023-02-12T08:50:49;103703.88;;;9.73;73.57
23679;BME280;12016;51.668;6.874;2023-02-12T08:56:59;103710.06;;;9.97;73.39
23679;BME280;12016;51.668;6.874;2023-02-12T09:03:04;103671.19;;;9.93;73.10
23679;BME280;12016;51.668;6.874;2023-02-12T09:09:05;103707.97;;;10.22;72.68
23679;BME280;12016;51.668;6.874;2023-02-12T09:15:09;103711.78;;;10.26;72.80
23679;BME280;12016;51.668;6.874;2023-02-12T09:21:12;103720.22;;;10.30;72.29
23679;BME280;12016;51.668;6.874;2023-02-12T09:27:17;103715.38;;;10.44;71.83
23679;BME280;12016;51.668;6.874;2023-02-12T09:33:20;103717.16;;;10.50;71.92
23679;BME280;12016;51.668;6.874;2023-02-12T09:39:23;103631.47;;;10.12;71.92
23679;BME280;12016;51.668;6.874;2023-02-12T09:45:29;103711.13;;;10.59;71.08
23679;BME280;12016;51.668;6.874;2023-02-12T09:51:33;103555.13;;;9.78;70.51
23679;BME280;12016;51.668;6.874;2023-02-12T09:57:36;103593.78;;;10.12;70.57
23679;BME280;12016;51.668;6.874;2023-02-12T10:03:39;103554.97;;;9.96;69.63
23679;BME280;12016;51.668;6.874;2023-02-12T10:16:16;103533.38;;;10.36;68.61
23679;BME280;12016;51.668;6.874;2023-02-12T10:22:42;103723.63;;;11.72;67.25
23679;BME280;12016;51.668;6.874;2023-02-12T10:29:04;103720.44;;;11.92;67.07
23679;BME280;12016;51.668;6.874;2023-02-12T10:35:15;103625.56;;;11.50;67.07
23679;BME280;12016;51.668;6.874;2023-02-12T10:41:18;103229.50;;;8.87;66.21
23679;BME280;12016;51.668;6.874;2023-02-12T10:47:22;103660.19;;;11.92;66.86
23679;BME280;12016;51.668;6.874;2023-02-12T10:53:33;103727.91;;;12.45;66.08
23679;BME280;12016;51.668;6.874;2023-02-12T10:59:36;103659.69;;;12.16;65.91
23679;BME280;12016;51.668;6.874;2023-02-12T11:05:42;103295.84;;;10.22;65.65
23679;BME280;12016;51.668;6.874;2023-02-12T11:11:44;103562.22;;;12.23;64.81
23679;BME280;12016;51.668;6.874;2023-02-12T11:18:07;103468.97;;;11.72;63.81
23679;BME280;12016;51.668;6.874;2023-02-12T11:24:31;103696.41;;;13.84;62.37
23679;BME280;12016;51.668;6.874;2023-02-12T11:30:34;103609.75;;;13.42;62.54
23679;BME280;12016;51.668;6.874;2023-02-12T11:36:47;103629.78;;;13.88;60.62
23679;BME280;12016;51.668;6.874;2023-02-12T11:42:56;103156.63;;;10.28;60.82
23679;BME280;12016;51.668;6.874;2023-02-12T11:49:00;103681.34;;;13.56;61.88
23679;BME280;12016;51.668;6.874;2023-02-12T11:55:27;103672.25;;;13.77;61.96
23679;BME280;12016;51.668;6.874;2023-02-12T12:01:33;103621.19;;;13.49;61.11
23679;BME280;12016;51.668;6.874;2023-02-12T12:07:39;103267.31;;;11.14;61.38
23679;BME280;12016;51.668;6.874;2023-02-12T12:13:48;103660.50;;;13.56;61.07
23679;BME280;12016;51.668;6.874;2023-02-12T12:20:04;103657.47;;;13.53;61.37
23679;BME280;12016;51.668;6.874;2023-02-12T12:26:11;103650.22;;;13.58;61.98
23679;BME280;12016;51.668;6.874;2023-02-12T12:32:17;103295.72;;;11.48;60.83
23679;BME280;12016;51.668;6.874;2023-02-12T12:38:32;103632.16;;;13.00;60.83
23679;BME280;12016;51.668;6.874;2023-02-12T12:45:00;103631.53;;;13.20;61.56
23679;BME280;12016;51.668;6.874;2023-02-12T12:57:44;103626.94;;;13.20;61.53
23679;BME280;12016;51.668;6.874;2023-02-12T13:04:08;103174.47;;;10.56;60.52
23679;BME280;12016;51.668;6.874;2023-02-12T13:10:31;103595.50;;;13.14;61.84
23679;BME280;12016;51.668;6.874;2023-02-12T13:16:59;103611.88;;;13.03;60.61
23679;BME280;12016;51.668;6.874;2023-02-12T13:23:27;103608.78;;;12.84;61.21
23679;BME280;12016;51.668;6.874;2023-02-12T13:29:53;103589.41;;;12.97;61.36
23679;BME280;12016;51.668;6.874;2023-02-12T13:36:01;103250.34;;;10.91;61.38
23679;BME280;12016;51.668;6.874;2023-02-12T13:54:59;103338.31;;;11.19;60.81
23679;BME280;12016;51.668;6.874;2023-02-12T14:01:10;103584.25;;;12.64;62.49
23679;BME280;12016;51.668;6.874;2023-02-12T14:07:13;103446.69;;;11.81;62.07
23679;BME280;12016;51.668;6.874;2023-02-12T14:19:53;103580.78;;;12.41;62.39
23679;BME280;12016;51.668;6.874;2023-02-12T14:26:10;103586.66;;;12.33;62.46
23679;BME280;12016;51.668;6.874;2023-02-12T14:44:55;103445.41;;;11.40;62.80
23679;BME280;12016;51.668;6.874;2023-02-12T14:51:00;103583.78;;;12.18;63.37
23679;BME280;12016;51.668;6.874;2023-02-12T14:57:08;103381.66;;;10.91;63.34
23679;BME280;12016;51.668;6.874;2023-02-12T15:03:16;103576.44;;;12.13;64.15
23679;BME280;12016;51.668;6.874;2023-02-12T15:09:29;103153.38;;;9.49;64.06
23679;BME280;12016;51.668;6.874;2023-02-12T15:15:38;103562.81;;;12.03;64.12
23679;BME280;12016;51.668;6.874;2023-02-12T15:21:40;103541.22;;;11.81;64.16
23679;BME280;12016;51.668;6.874;2023-02-12T15:27:43;103555.44;;;11.94;64.10
23679;BME280;12016;51.668;6.874;2023-02-12T15:33:49;103561.31;;;11.91;63.69
23679;BME280;12016;51.668;6.874;2023-02-12T15:39:54;103196.66;;;9.30;64.05
23679;BME280;12016;51.668;6.874;2023-02-12T15:45:58;103350.13;;;10.53;64.74
23679;BME280;12016;51.668;6.874;2023-02-12T15:52:03;103389.31;;;10.77;64.90
23679;BME280;12016;51.668;6.874;2023-02-12T15:58:20;103540.78;;;11.68;64.83
23679;BME280;12016;51.668;6.874;2023-02-12T16:04:23;103443.25;;;10.99;65.01
23679;BME280;12016;51.668;6.874;2023-02-12T16:10:26;103316.38;;;10.12;64.77
23679;BME280;12016;51.668;6.874;2023-02-12T16:16:37;103327.09;;;10.23;65.05
23679;BME280;12016;51.668;6.874;2023-02-12T16:22:42;103548.97;;;11.56;65.16
23679;BME280;12016;51.668;6.874;2023-02-12T16:28:47;103542.72;;;11.51;65.01
23679;BME280;12016;51.668;6.874;2023-02-12T16:41:30;103205.56;;;9.31;65.36
23679;BME280;12016;51.668;6.874;2023-02-12T16:47:33;103223.91;;;9.34;65.41
23679;BME280;12016;51.668;6.874;2023-02-12T16:53:38;103557.88;;;11.35;65.20
23679;BME280;12016;51.668;6.874;2023-02-12T16:59:44;103557.53;;;11.31;65.84
23679;BME280;12016;51.668;6.874;2023-02-12T17:05:47;103549.16;;;11.28;65.79
23679;BME280;12016;51.668;6.874;2023-02-12T17:11:50;103550.69;;;11.24;65.56
23679;BME280;12016;51.668;6.874;2023-02-12T17:17:51;103318.44;;;9.71;65.37
23679;BME280;12016;51.668;6.874;2023-02-12T17:23:53;103561.91;;;11.16;66.15
23679;BME280;12016;51.668;6.874;2023-02-12T17:29:58;103438.00;;;10.20;65.65
23679;BME280;12016;51.668;6.874;2023-02-12T17:36:00;103564.53;;;11.10;66.07
23679;BME280;12016;51.668;6.874;2023-02-12T17:42:02;103167.69;;;8.59;66.31
23679;BME280;12016;51.668;6.874;2023-02-12T17:48:04;103381.38;;;9.87;66.49
23679;BME280;12016;51.668;6.874;2023-02-12T17:54:06;103449.06;;;10.35;66.72
23679;BME280;12016;51.668;6.874;2023-02-12T18:00:09;103564.69;;;11.04;66.43
23679;BME280;12016;51.668;6.874;2023-02-12T18:06:12;103535.47;;;10.62;66.97
23679;BME280;12016;51.668;6.874;2023-02-12T18:12:17;103435.94;;;10.11;67.24
23679;BME280;12016;51.668;6.874;2023-02-12T18:18:19;103578.34;;;10.97;67.37
23679;BME280;12016;51.668;6.874;2023-02-12T18:24:21;103575.06;;;10.95;67.19
23679;BME280;12016;51.668;6.874;2023-02-12T18:30:24;103594.03;;;10.84;66.86
23679;BME280;12016;51.668;6.874;2023-02-12T18:36:26;103176.41;;;8.38;66.85
23679;BME280;12016;51.668;6.874;2023-02-12T18:42:29;103378.09;;;9.68;67.42
23679;BME280;12016;51.668;6.874;2023-02-12T18:48:33;103520.19;;;10.51;67.40
23679;BME280;12016;51.668;6.874;2023-02-12T18:54:35;103176.56;;;7.96;67.57
23679;BME280;12016;51.668;6.874;2023-02-12T19:00:37;103295.78;;;9.10;67.59
23679;BME280;12016;51.668;6.874;2023-02-12T19:06:42;103572.22;;;10.85;67.75
23679;BME280;12016;51.668;6.874;2023-02-12T19:12:45;103437.88;;;9.98;67.50
23679;BME280;12016;51.668;6.874;2023-02-12T19:18:49;103583.50;;;10.82;67.72
23679;BME280;12016;51.668;6.874;2023-02-12T19:24:51;103072.66;;;7.68;67.29
23679;BME280;12016;51.668;6.874;2023-02-12T19:30:52;103514.69;;;10.46;67.61
23679;BME280;12016;51.668;6.874;2023-02-12T19:36:55;103473.84;;;10.21;67.88
23679;BME280;12016;51.668;6.874;2023-02-12T19:42:57;103413.69;;;9.87;67.87
23679;BME280;12016;51.668;6.874;2023-02-12T19:49:00;103301.47;;;8.85;67.68
23679;BME280;12016;51.668;6.874;2023-02-12T19:55:02;103553.44;;;10.73;68.19
23679;BME280;12016;51.668;6.874;2023-02-12T20:01:09;103554.16;;;10.69;67.92
23679;BME280;12016;51.668;6.874;2023-02-12T20:07:11;103558.72;;;10.68;67.80
23679;BME280;12016;51.668;6.874;2023-02-12T20:13:13;103534.78;;;10.38;68.05
23679;BME280;12016;51.668;6.874;2023-02-12T20:25:21;103573.69;;;10.59;68.16
23679;BME280;12016;51.668;6.874;2023-02-12T20:31:26;103240.63;;;8.28;67.90
23679;BME280;12016;51.668;6.874;2023-02-12T20:37:28;103360.03;;;8.95;67.94
23679;BME280;12016;51.668;6.874;2023-02-12T20:43:31;103212.94;;;8.39;68.04
23679;BME280;12016;51.668;6.874;2023-02-12T20:49:33;103617.44;;;10.50;68.37
23679;BME280;12016;51.668;6.874;2023-02-12T20:55:36;103557.09;;;10.51;67.93
23679;BME280;12016;51.668;6.874;2023-02-12T21:01:39;103467.75;;;9.97;68.16
23679;BME280;12016;51.668;6.874;2023-02-12T21:07:41;103554.59;;;10.32;68.52
23679;BME280;12016;51.668;6.874;2023-02-12T21:13:46;103536.59;;;10.50;68.30
23679;BME280;12016;51.668;6.874;2023-02-12T21:19:50;103566.25;;;10.50;68.47
23679;BME280;12016;51.668;6.874;2023-02-12T21:26:11;103545.16;;;10.47;68.26
23679;BME280;12016;51.668;6.874;2023-02-12T21:32:14;103382.31;;;9.47;68.47
23679;BME280;12016;51.668;6.874;2023-02-12T21:38:15;103539.19;;;10.45;69.00
23679;BME280;12016;51.668;6.874;2023-02-12T21:44:19;103406.72;;;9.57;68.23
23679;BME280;12016;51.668;6.874;2023-02-12T21:50:21;103549.97;;;10.45;68.08
23679;BME280;12016;51.668;6.874;2023-02-12T21:56:22;103354.53;;;8.90;68.30
23679;BME280;12016;51.668;6.874;2023-02-12T22:02:24;103542.94;;;10.44;68.43
23679;BME280;12016;51.668;6.874;2023-02-12T22:08:26;103321.72;;;8.76;68.38
23679;BME280;12016;51.668;6.874;2023-02-12T22:14:28;103548.09;;;10.45;68.46
23679;BME280;12016;51.668;6.874;2023-02-12T22:20:30;103541.31;;;10.43;68.91
23679;BME280;12016;51.668;6.874;2023-02-12T22:26:32;103381.63;;;9.40;68.68
23679;BME280;12016;51.668;6.874;2023-02-12T22:32:34;103535.34;;;10.41;68.89
23679;BME280;12016;51.668;6.874;2023-02-12T22:38:37;103537.72;;;10.37;68.83
23679;BME280;12016;51.668;6.874;2023-02-12T22:44:38;103158.81;;;7.95;68.76
23679;BME280;12016;51.668;6.874;2023-02-12T22:50:40;103556.19;;;10.45;68.82
23679;BME280;12016;51.668;6.874;2023-02-12T22:56:43;103562.84;;;10.43;68.94
23679;BME280;12016;51.668;6.874;2023-02-12T23:02:45;103546.69;;;10.43;68.79
23679;BME280;12016;51.668;6.874;2023-02-12T23:08:51;103539.66;;;10.42;68.92
23679;BME280;12016;51.668;6.874;2023-02-12T23:14:54;103540.88;;;10.34;69.07
23679;BME280;12016;51.668;6.874;2023-02-12T23:20:55;103380.88;;;9.16;69.22
23679;BME280;12016;51.668;6.874;2023-02-12T23:26:58;103479.50;;;10.08;68.83
23679;BME280;12016;51.668;6.874;2023-02-12T23:33:00;103486.28;;;10.10;69.27
23679;BME280;12016;51.668;6.874;2023-02-12T23:39:02;103233.81;;;8.48;69.08
23679;BME280;12016;51.668;6.874;2023-02-12T23:45:07;103400.56;;;9.45;68.82
23679;BME280;12016;51.668;6.874;2023-02-12T23:51:09;103110.31;;;7.85;68.82
23679;BME280;12016;51.668;6.874;2023-02-12T23:57:11;103415.38;;;9.59;68.97
